Time;durP1;ratioP1;P1;durP2;ratioP2;P2;SDS_P1;SDS_P2;PMS_P1;PMS_P2;Temp;Humidity;BMP_temperature;BMP_pressure;BME280_temperature;BME280_humidity;BME280_pressure;Samples;Min_cycle;Max_cycle;Signal;HPM_P1;HPM_P2
2023/07/05 00:02:03;;;;;;;6.90;6.30;;;16.30;1.00;;;;;;5019125;28;20568;-70
2023/07/05 00:04:32;;;;;;;8.80;7.50;;;16.20;1.00;;;;;;5022989;28;20545;-71
2023/07/05 00:06:59;;;;;;;7.23;6.47;;;16.30;1.00;;;;;;5022686;28;20558;-70
2023/07/05 00:09:26;;;;;;;8.73;6.90;;;16.30;1.00;;;;;;5023942;28;20464;-70
2023/07/05 00:11:53;;;;;;;7.63;6.87;;;16.20;1.00;;;;;;5022143;28;20533;-71
2023/07/05 00:14:20;;;;;;;7.43;6.70;;;16.20;1.00;;;;;;5023556;28;20474;-71
2023/07/05 00:16:47;;;;;;;6.37;5.87;;;16.10;1.00;;;;;;5020762;28;20848;-73
2023/07/05 00:19:20;;;;;;;6.80;6.20;;;16.10;1.00;;;;;;5022392;28;20535;-71
2023/07/05 00:21:48;;;;;;;7.00;6.40;;;16.10;1.00;;;;;;5032943;28;20560;-70
2023/07/05 00:24:17;;;;;;;7.73;6.40;;;16.10;1.00;;;;;;5035494;28;20456;-71
2023/07/05 00:26:43;;;;;;;9.40;7.63;;;16.00;1.00;;;;;;5027444;28;20834;-71
2023/07/05 00:29:10;;;;;;;10.07;8.10;;;16.00;1.00;;;;;;5030693;28;20537;-71
2023/07/05 00:31:38;;;;;;;7.23;6.27;;;16.00;1.00;;;;;;5029028;28;20500;-71
2023/07/05 00:34:05;;;;;;;7.50;6.80;;;16.00;1.00;;;;;;5033745;28;20483;-70
2023/07/05 00:36:32;;;;;;;8.77;7.40;;;15.90;1.00;;;;;;5030456;28;20968;-70
2023/07/05 00:39:00;;;;;;;9.93;6.60;;;15.90;1.00;;;;;;5021934;28;21907;-70
2023/07/05 00:41:27;;;;;;;6.73;6.23;;;15.90;1.00;;;;;;5025001;28;20449;-71
2023/07/05 00:43:54;;;;;;;7.83;7.03;;;15.90;1.00;;;;;;5025385;28;20983;-71
2023/07/05 00:46:25;;;;;;;8.70;7.50;;;15.90;1.00;;;;;;5022727;28;20468;-70
2023/07/05 00:48:55;;;;;;;7.27;6.57;;;15.90;1.00;;;;;;5021712;28;20560;-70
2023/07/05 00:51:26;;;;;;;9.50;7.77;;;15.90;1.00;;;;;;5020141;28;20493;-72
2023/07/05 00:53:55;;;;;;;8.43;6.87;;;15.80;1.00;;;;;;5024361;28;20459;-71
2023/07/05 00:56:27;;;;;;;10.07;7.57;;;15.80;1.00;;;;;;5024140;28;20566;-71
2023/07/05 00:58:56;;;;;;;11.67;7.40;;;15.80;1.00;;;;;;5023702;28;20501;-70
2023/07/05 01:01:24;;;;;;;7.20;6.37;;;15.80;1.00;;;;;;5019621;28;20481;-71
2023/07/05 01:03:54;;;;;;;11.10;7.57;;;15.80;1.00;;;;;;5020171;28;20492;-71
2023/07/05 01:06:22;;;;;;;8.53;7.73;;;15.80;1.00;;;;;;5054599;22;20567;-70
2023/07/05 01:08:50;;;;;;;23.00;20.90;;;15.70;1.00;;;;;;5019008;28;20477;-70
2023/07/05 01:11:26;;;;;;;8.13;7.23;;;15.70;1.00;;;;;;5007441;28;20603;-70
2023/07/05 01:14:01;;;;;;;8.07;7.17;;;15.70;1.00;;;;;;5016289;28;20560;-70
2023/07/05 01:16:44;;;;;;;8.20;7.20;;;15.70;1.00;;;;;;5017330;28;20474;-70
2023/07/05 01:19:33;;;;;;;7.97;7.13;;;15.70;1.00;;;;;;5010184;28;20471;-70
2023/07/05 01:22:06;;;;;;;11.23;8.27;;;15.60;1.00;;;;;;5016440;28;20531;-70
2023/07/05 01:24:54;;;;;;;13.17;7.87;;;15.70;1.00;;;;;;5014895;28;20847;-69
2023/07/05 01:27:56;;;;;;;7.50;6.80;;;15.80;1.00;;;;;;5015222;28;21713;-69
2023/07/05 01:30:42;;;;;;;8.77;7.80;;;15.80;1.00;;;;;;5012085;28;20540;-69
2023/07/05 01:33:14;;;;;;;7.33;6.70;;;15.80;1.00;;;;;;5012661;28;20483;-72
2023/07/05 01:35:46;;;;;;;7.33;6.53;;;15.90;1.00;;;;;;5014640;28;20475;-69
2023/07/05 01:38:14;;;;;;;8.30;7.50;;;16.00;1.00;;;;;;5011516;28;20473;-69
2023/07/05 01:40:56;;;;;;;8.53;7.23;;;16.00;1.00;;;;;;5015654;28;21063;-70
2023/07/05 01:43:25;;;;;;;8.33;7.60;;;16.00;1.00;;;;;;5019088;28;20474;-69
2023/07/05 01:46:08;;;;;;;7.93;7.10;;;16.00;1.00;;;;;;5017859;28;20461;-69
2023/07/05 01:48:45;;;;;;;7.20;6.50;;;16.00;1.00;;;;;;5016818;28;20552;-69
2023/07/05 01:51:28;;;;;;;7.30;6.63;;;16.00;1.00;;;;;;5014757;28;20548;-70
2023/07/05 01:54:01;;;;;;;7.73;6.93;;;16.00;1.00;;;;;;5021833;28;21021;-76
2023/07/05 02:03:16;;;;;;;7.33;6.63;;;15.80;1.00;;;;;;5026192;28;20464;-76
2023/07/05 02:05:45;;;;;;;6.87;6.30;;;15.80;1.00;;;;;;5026903;28;20562;-76
2023/07/05 02:08:13;;;;;;;7.03;6.37;;;15.80;1.00;;;;;;5029788;28;20488;-76
2023/07/05 02:10:40;;;;;;;7.83;7.10;;;15.70;1.00;;;;;;5031510;28;20580;-76
2023/07/05 02:13:10;;;;;;;10.30;7.53;;;15.60;1.00;;;;;;5025322;28;20544;-75
2023/07/05 02:15:38;;;;;;;8.60;6.77;;;15.50;1.00;;;;;;5030805;28;20927;-75
2023/07/05 02:18:05;;;;;;;10.07;6.50;;;15.50;1.00;;;;;;5024545;28;20510;-76
2023/07/05 02:20:32;;;;;;;12.97;7.60;;;15.30;1.00;;;;;;5018682;28;20464;-76
2023/07/05 02:23:00;;;;;;;8.60;7.57;;;15.30;1.00;;;;;;5022798;28;20999;-76
2023/07/05 02:25:27;;;;;;;8.17;7.40;;;15.30;1.00;;;;;;5019264;28;20475;-76
2023/07/05 02:27:55;;;;;;;8.40;7.27;;;15.20;1.00;;;;;;5018649;28;20575;-76
2023/07/05 02:30:26;;;;;;;8.73;7.93;;;15.10;1.00;;;;;;5019088;28;20467;-76
2023/07/05 02:32:53;;;;;;;8.33;7.17;;;15.10;1.00;;;;;;5022631;28;20511;-76
2023/07/05 02:35:20;;;;;;;7.90;7.20;;;15.10;1.00;;;;;;5019193;28;21029;-75
2023/07/05 02:37:47;;;;;;;7.93;6.70;;;15.20;1.00;;;;;;5019317;28;20971;-75
2023/07/05 02:40:17;;;;;;;8.53;6.73;;;15.10;1.00;;;;;;5018220;28;20550;-75
2023/07/05 02:42:44;;;;;;;11.27;7.87;;;15.20;1.00;;;;;;5028258;28;21444;-76
2023/07/05 02:45:11;;;;;;;8.20;7.30;;;15.20;1.00;;;;;;5024383;28;20486;-75
2023/07/05 02:47:38;;;;;;;8.40;7.30;;;15.10;1.00;;;;;;5029943;28;20455;-75
2023/07/05 02:50:06;;;;;;;7.57;6.73;;;15.10;1.00;;;;;;5026465;28;20476;-75
2023/07/05 02:52:33;;;;;;;9.30;7.30;;;15.10;1.00;;;;;;5027905;28;20475;-77
2023/07/05 02:55:00;;;;;;;10.23;7.53;;;15.10;1.00;;;;;;5029096;28;20563;-76
2023/07/05 02:57:28;;;;;;;7.80;6.10;;;15.10;1.00;;;;;;5029348;28;20464;-76
2023/07/05 02:59:55;;;;;;;7.80;7.00;;;15.10;1.00;;;;;;5031614;28;20551;-77
2023/07/05 03:02:22;;;;;;;7.93;6.60;;;15.10;1.00;;;;;;5026850;28;20947;-75
2023/07/05 03:04:49;;;;;;;7.30;6.57;;;15.10;1.00;;;;;;5025121;28;20465;-75
2023/07/05 03:07:15;;;;;;;8.80;6.60;;;15.00;1.00;;;;;;5024583;28;20488;-75
2023/07/05 03:09:48;;;;;;;9.23;7.37;;;15.10;1.00;;;;;;5028220;28;20461;-76
2023/07/05 03:12:15;;;;;;;9.83;8.30;;;15.20;1.00;;;;;;5027986;28;20471;-75
2023/07/05 03:14:43;;;;;;;7.57;6.97;;;15.20;1.00;;;;;;5030044;28;20475;-75
2023/07/05 03:17:10;;;;;;;8.33;7.53;;;15.20;1.00;;;;;;5029292;28;20459;-75
2023/07/05 03:19:37;;;;;;;8.50;7.70;;;15.20;1.00;;;;;;5028998;28;20585;-76
2023/07/05 03:22:04;;;;;;;10.00;6.80;;;15.20;1.00;;;;;;5022528;28;20459;-75
2023/07/05 03:24:31;;;;;;;11.07;7.53;;;15.10;1.00;;;;;;5021554;28;20516;-76
2023/07/05 03:26:58;;;;;;;7.97;7.10;;;15.20;1.00;;;;;;5023823;28;20456;-76
2023/07/05 03:29:25;;;;;;;7.93;7.23;;;15.20;1.00;;;;;;5022143;28;20476;-76
2023/07/05 03:31:53;;;;;;;12.70;7.20;;;15.30;1.00;;;;;;5024018;28;21256;-77
2023/07/05 03:34:20;;;;;;;7.83;7.13;;;15.40;1.00;;;;;;5024505;28;20467;-75
2023/07/05 03:36:47;;;;;;;10.77;7.80;;;15.40;1.00;;;;;;5021917;28;20423;-76
2023/07/05 03:39:15;;;;;;;13.27;9.17;;;15.50;1.00;;;;;;5019341;28;20502;-75
2023/07/05 03:41:42;;;;;;;10.63;7.70;;;15.50;1.00;;;;;;5020801;28;20457;-77
2023/07/05 03:44:09;;;;;;;11.03;7.67;;;15.60;1.00;;;;;;5022405;28;20511;-75
2023/07/05 03:46:36;;;;;;;16.23;9.80;;;15.60;1.00;;;;;;5021655;28;20483;-75
2023/07/05 03:49:04;;;;;;;10.53;7.80;;;15.60;1.00;;;;;;5022664;28;20449;-78
2023/07/05 03:51:31;;;;;;;7.40;6.43;;;15.70;1.00;;;;;;5020591;28;20450;-75
2023/07/05 03:53:59;;;;;;;7.57;6.73;;;15.70;1.00;;;;;;5019447;28;20504;-74
2023/07/05 03:56:28;;;;;;;9.43;6.57;;;15.70;1.00;;;;;;5019422;28;20483;-75
2023/07/05 03:58:55;;;;;;;8.13;7.10;;;15.70;1.00;;;;;;5025157;28;21768;-77
2023/07/05 04:01:24;;;;;;;10.90;7.63;;;15.90;1.00;;;;;;5019604;28;21970;-76
2023/07/05 04:03:53;;;;;;;7.63;5.97;;;16.00;1.00;;;;;;5017585;28;20469;-76
2023/07/05 04:06:23;;;;;;;8.27;7.43;;;16.00;1.00;;;;;;5018104;28;20560;-77
2023/07/05 04:08:50;;;;;;;12.00;7.00;;;16.00;1.00;;;;;;5024343;28;20551;-75
2023/07/05 04:11:17;;;;;;;7.83;7.03;;;16.10;1.00;;;;;;5021286;28;20536;-77
2023/07/05 04:13:45;;;;;;;7.30;6.60;;;16.30;1.00;;;;;;5016845;28;20567;-77
2023/07/05 04:16:14;;;;;;;7.77;6.97;;;16.30;1.00;;;;;;5025991;28;20473;-77
2023/07/05 04:18:45;;;;;;;9.33;7.00;;;16.30;1.00;;;;;;5026146;28;20552;-76
2023/07/05 04:21:12;;;;;;;7.60;6.47;;;16.40;1.00;;;;;;5023877;28;20457;-76
2023/07/05 04:23:42;;;;;;;11.47;7.33;;;16.40;1.00;;;;;;5023542;28;20489;-77
2023/07/05 04:26:11;;;;;;;9.03;6.73;;;16.40;1.00;;;;;;5027309;28;20465;-75
2023/07/05 04:28:41;;;;;;;9.40;6.40;;;16.50;1.00;;;;;;5024910;28;20949;-76
2023/07/05 04:31:10;;;;;;;7.57;6.80;;;16.50;1.00;;;;;;5028159;28;20441;-75
2023/07/05 04:33:37;;;;;;;6.83;6.13;;;16.50;1.00;;;;;;5027164;28;20526;-76
2023/07/05 04:36:07;;;;;;;15.50;10.53;;;16.50;1.00;;;;;;5026282;28;20469;-75
2023/07/05 04:38:34;;;;;;;8.50;6.97;;;16.60;1.00;;;;;;5025316;28;21210;-76
2023/07/05 04:41:03;;;;;;;10.20;6.00;;;16.60;1.00;;;;;;5025089;28;20876;-76
2023/07/05 04:43:30;;;;;;;10.20;7.23;;;16.60;1.00;;;;;;5023722;28;20541;-76
2023/07/05 04:45:58;;;;;;;7.77;6.97;;;16.70;1.00;;;;;;5031135;28;20523;-76
2023/07/05 04:48:27;;;;;;;7.33;6.50;;;16.80;1.00;;;;;;5032621;28;20635;-77
2023/07/05 04:50:54;;;;;;;7.47;6.67;;;16.80;1.00;;;;;;5027609;28;20461;-76
2023/07/05 04:53:22;;;;;;;7.77;6.13;;;16.90;1.00;;;;;;5027947;28;20462;-76
2023/07/05 04:55:50;;;;;;;9.63;7.27;;;17.00;1.00;;;;;;5026570;28;20492;-76
2023/07/05 04:58:19;;;;;;;6.90;5.90;;;17.10;1.00;;;;;;5028249;28;21110;-75
2023/07/05 05:00:49;;;;;;;9.17;6.43;;;17.20;1.00;;;;;;5029733;28;20455;-76
2023/07/05 05:03:18;;;;;;;7.10;6.30;;;17.20;1.00;;;;;;5028718;28;20485;-77
2023/07/05 05:05:45;;;;;;;7.80;7.10;;;17.30;1.00;;;;;;5030636;28;20433;-77
2023/07/05 05:08:12;;;;;;;8.20;6.00;;;17.30;1.00;;;;;;5025244;28;20498;-76
2023/07/05 05:10:39;;;;;;;7.63;6.10;;;17.30;1.00;;;;;;5026585;28;20482;-76
2023/07/05 05:13:07;;;;;;;7.27;6.53;;;17.40;1.00;;;;;;5030646;28;20487;-76
2023/07/05 05:15:38;;;;;;;9.00;7.77;;;17.50;1.00;;;;;;5026519;28;20449;-75
2023/07/05 05:18:05;;;;;;;8.67;6.07;;;17.70;1.00;;;;;;5027441;28;20469;-76
2023/07/05 05:20:32;;;;;;;8.33;6.53;;;17.70;1.00;;;;;;5025105;28;20449;-76
2023/07/05 05:23:00;;;;;;;7.10;6.50;;;17.80;1.00;;;;;;5030402;28;20461;-76
2023/07/05 05:25:27;;;;;;;8.83;6.70;;;17.80;1.00;;;;;;5028306;28;20455;-71
2023/07/05 05:27:54;;;;;;;8.37;5.67;;;17.90;1.00;;;;;;5021165;28;20530;-71
2023/07/05 05:30:22;;;;;;;7.27;6.47;;;18.10;1.00;;;;;;5018153;28;20789;-72
2023/07/05 05:32:50;;;;;;;7.87;7.20;;;18.20;1.00;;;;;;5018147;28;20465;-71
2023/07/05 05:35:21;;;;;;;9.77;7.73;;;18.40;1.00;;;;;;5013197;28;20537;-72
2023/07/05 05:37:48;;;;;;;6.60;6.00;;;18.50;1.00;;;;;;5013552;28;20537;-72
2023/07/05 05:40:15;;;;;;;7.27;6.43;;;18.50;1.00;;;;;;5019866;28;21017;-72
2023/07/05 05:42:42;;;;;;;8.37;6.20;;;18.50;1.00;;;;;;5018774;28;20572;-71
2023/07/05 05:45:09;;;;;;;9.10;7.20;;;18.60;1.00;;;;;;5019744;28;20490;-72
2023/07/05 05:47:36;;;;;;;7.50;6.50;;;18.60;1.00;;;;;;5019635;28;20564;-72
2023/07/05 05:50:07;;;;;;;7.27;6.57;;;18.80;1.00;;;;;;5019696;28;20494;-75
2023/07/05 05:52:35;;;;;;;11.13;6.70;;;19.00;1.00;;;;;;5023455;28;20471;-72
2023/07/05 05:55:02;;;;;;;6.97;6.27;;;19.10;1.00;;;;;;5015679;28;20578;-72
2023/07/05 05:57:29;;;;;;;7.60;6.90;;;19.20;1.00;;;;;;5012018;28;20755;-72
2023/07/05 05:59:56;;;;;;;6.97;6.37;;;19.30;1.00;;;;;;5011178;28;20482;-71
2023/07/05 06:02:23;;;;;;;9.30;6.63;;;19.50;1.00;;;;;;5013103;28;21603;-72
2023/07/05 06:04:50;;;;;;;6.93;6.23;;;19.60;1.00;;;;;;5012962;28;20457;-72
2023/07/05 06:07:19;;;;;;;6.90;6.30;;;19.60;1.00;;;;;;5011601;28;20598;-73
2023/07/05 06:09:48;;;;;;;8.40;7.13;;;19.60;1.00;;;;;;5011596;28;20496;-72
2023/07/05 06:12:15;;;;;;;10.00;6.23;;;19.50;1.00;;;;;;5015573;28;20497;-72
2023/07/05 06:14:43;;;;;;;8.37;6.93;;;19.50;1.00;;;;;;5015156;28;20898;-71
2023/07/05 06:17:10;;;;;;;6.50;5.90;;;19.50;1.00;;;;;;5018103;28;20467;-73
2023/07/05 06:19:37;;;;;;;10.63;6.10;;;19.40;1.00;;;;;;5023237;28;20470;-72
2023/07/05 06:22:04;;;;;;;8.47;7.47;;;19.50;1.00;;;;;;5023568;28;20631;-72
2023/07/05 06:24:33;;;;;;;11.10;7.63;;;19.60;1.00;;;;;;5023928;28;20904;-71
2023/07/05 06:27:01;;;;;;;7.03;6.33;;;19.50;1.00;;;;;;5026862;28;20885;-72
2023/07/05 06:29:28;;;;;;;8.00;7.00;;;19.60;1.00;;;;;;5021630;28;20552;-71
2023/07/05 06:31:55;;;;;;;12.50;11.30;;;19.70;1.00;;;;;;5028352;28;20647;-72
2023/07/05 06:34:23;;;;;;;8.73;7.33;;;19.70;1.00;;;;;;5014442;28;20527;-72
2023/07/05 06:36:49;;;;;;;7.97;7.17;;;19.90;1.00;;;;;;5016877;28;20551;-73
2023/07/05 06:39:16;;;;;;;12.33;7.47;;;19.80;1.00;;;;;;5014682;28;20609;-73
2023/07/05 06:41:45;;;;;;;13.33;11.73;;;19.70;1.00;;;;;;5023851;28;20547;-74
2023/07/05 06:44:12;;;;;;;13.00;8.70;;;19.90;1.00;;;;;;5021059;28;20441;-73
2023/07/05 06:46:39;;;;;;;10.77;8.40;;;20.20;1.00;;;;;;5025377;28;20595;-72
2023/07/05 06:49:06;;;;;;;11.50;8.10;;;20.30;1.00;;;;;;5018986;28;20937;-73
2023/07/05 06:51:33;;;;;;;10.07;8.17;;;20.50;1.00;;;;;;5018155;28;20582;-75
2023/07/05 06:53:59;;;;;;;8.70;7.63;;;20.70;1.00;;;;;;5020392;28;20983;-73
2023/07/05 06:56:26;;;;;;;12.10;7.80;;;20.90;1.00;;;;;;5022573;28;20556;-73
2023/07/05 06:58:55;;;;;;;10.03;7.10;;;21.10;1.00;;;;;;5022644;28;20974;-73
2023/07/05 07:01:22;;;;;;;8.43;7.60;;;21.00;1.00;;;;;;5022294;28;20474;-74
2023/07/05 07:03:49;;;;;;;9.93;8.13;;;21.10;1.00;;;;;;5026605;28;20564;-74
2023/07/05 07:06:16;;;;;;;9.97;8.60;;;21.20;1.00;;;;;;5020465;28;20605;-74
2023/07/05 07:08:48;;;;;;;8.63;7.83;;;21.30;1.00;;;;;;5022110;28;20476;-74
2023/07/05 07:11:15;;;;;;;9.97;8.83;;;21.50;1.00;;;;;;5017188;28;20629;-73
2023/07/05 07:13:42;;;;;;;10.53;9.00;;;21.40;1.00;;;;;;5026956;28;20469;-73
2023/07/05 07:16:13;;;;;;;10.47;8.67;;;21.60;1.00;;;;;;5027255;28;20938;-75
2023/07/05 07:18:46;;;;;;;10.47;8.70;;;21.90;1.00;;;;;;5023779;28;20457;-73
2023/07/05 07:21:15;;;;;;;10.30;9.20;;;22.00;1.00;;;;;;5020333;28;20475;-74
2023/07/05 07:23:42;;;;;;;11.37;9.50;;;22.00;1.00;;;;;;5024729;28;20478;-73
2023/07/05 07:26:12;;;;;;;12.70;10.30;;;22.20;1.00;;;;;;5019833;28;20554;-75
2023/07/05 07:28:39;;;;;;;9.93;8.93;;;22.40;1.00;;;;;;5023919;28;20445;-74
2023/07/05 07:31:12;;;;;;;16.43;11.07;;;22.60;1.00;;;;;;5025048;28;20472;-74
2023/07/05 07:33:38;;;;;;;11.73;10.13;;;22.60;1.00;;;;;;5022860;28;20454;-75
2023/07/05 07:36:10;;;;;;;12.20;10.77;;;22.70;1.00;;;;;;5025562;28;20498;-75
2023/07/05 07:38:37;;;;;;;13.27;10.97;;;22.60;1.00;;;;;;5024542;28;20456;-74
2023/07/05 07:41:04;;;;;;;13.90;11.97;;;22.60;1.00;;;;;;5024170;28;20472;-74
2023/07/05 07:43:31;;;;;;;14.30;11.10;;;22.90;1.00;;;;;;5019904;28;20462;-74
2023/07/05 07:45:58;;;;;;;11.13;10.03;;;23.20;1.00;;;;;;5022761;28;20450;-74
2023/07/05 07:48:26;;;;;;;13.20;11.90;;;23.20;1.00;;;;;;5025898;28;21253;-73
2023/07/05 07:50:53;;;;;;;13.37;11.83;;;23.40;1.00;;;;;;5017194;28;21065;-75
2023/07/05 07:53:20;;;;;;;14.03;11.70;;;23.50;1.00;;;;;;5023933;28;20548;-75
2023/07/05 07:55:47;;;;;;;13.77;12.47;;;23.70;1.00;;;;;;5022956;28;20458;-77
2023/07/05 07:58:14;;;;;;;12.30;11.10;;;24.00;1.00;;;;;;5022397;28;20479;-76
2023/07/05 08:00:40;;;;;;;13.17;11.97;;;24.30;1.00;;;;;;5018224;28;21439;-75
2023/07/05 08:03:08;;;;;;;14.20;12.80;;;24.20;1.00;;;;;;5019780;28;20548;-75
2023/07/05 08:05:36;;;;;;;13.37;12.00;;;24.20;1.00;;;;;;5016708;28;20470;-75
2023/07/05 08:08:03;;;;;;;14.20;12.80;;;24.20;1.00;;;;;;5016436;28;21828;-75
2023/07/05 08:10:30;;;;;;;13.93;12.60;;;24.30;1.00;;;;;;5018193;28;20498;-74
2023/07/05 08:12:57;;;;;;;14.20;12.77;;;24.10;1.00;;;;;;5027319;28;20517;-74
2023/07/05 08:15:24;;;;;;;14.97;13.30;;;24.10;1.00;;;;;;5023851;28;20484;-74
2023/07/05 08:17:52;;;;;;;16.10;12.87;;;24.10;1.00;;;;;;5026912;28;20506;-76
2023/07/05 08:20:19;;;;;;;16.07;13.53;;;24.10;1.00;;;;;;5026449;28;21468;-75
2023/07/05 08:22:47;;;;;;;15.30;13.80;;;24.00;1.00;;;;;;5026824;28;20464;-73
2023/07/05 08:25:15;;;;;;;15.77;13.40;;;23.90;1.00;;;;;;5026834;28;20534;-74
2023/07/05 08:27:42;;;;;;;15.60;13.60;;;24.00;1.00;;;;;;5024263;28;20494;-74
2023/07/05 08:30:10;;;;;;;15.83;13.70;;;24.00;1.00;;;;;;5024986;28;20528;-74
2023/07/05 08:32:37;;;;;;;15.30;13.90;;;24.00;1.00;;;;;;5030299;28;22636;-74
2023/07/05 08:35:05;;;;;;;19.93;14.47;;;24.20;1.00;;;;;;5030696;28;20467;-74
2023/07/05 08:37:32;;;;;;;16.93;14.27;;;23.90;1.00;;;;;;5025666;28;20487;-73
2023/07/05 08:40:01;;;;;;;17.27;15.67;;;23.60;1.00;;;;;;5027912;28;20897;-74
2023/07/05 08:42:43;;;;;;;16.63;14.57;;;23.40;1.00;;;;;;5025971;28;20452;-73
2023/07/05 08:45:17;;;;;;;15.37;13.80;;;23.30;1.00;;;;;;5023791;28;21147;-74
2023/07/05 08:47:49;;;;;;;17.13;14.37;;;23.20;1.00;;;;;;5025321;28;20483;-75
2023/07/05 08:50:23;;;;;;;16.23;14.60;;;23.20;1.00;;;;;;5027653;28;20489;-75
2023/07/05 08:52:51;;;;;;;17.63;15.80;;;23.20;1.00;;;;;;5027799;28;20456;-74
2023/07/05 08:55:30;;;;;;;16.30;14.60;;;23.30;1.00;;;;;;5026787;28;20965;-74
2023/07/05 08:57:58;;;;;;;16.07;14.53;;;23.30;1.00;;;;;;5024698;28;20449;-74
2023/07/05 09:00:29;;;;;;;18.60;15.10;;;23.10;1.00;;;;;;5023046;28;20481;-73
2023/07/05 09:02:56;;;;;;;16.20;14.20;;;23.00;1.00;;;;;;5025144;28;20906;-73
2023/07/05 09:05:33;;;;;;;15.30;13.87;;;23.00;1.00;;;;;;5022439;28;21349;-73
2023/07/05 09:08:16;;;;;;;16.40;13.17;;;23.20;1.00;;;;;;5025496;28;21130;-73
2023/07/05 09:10:52;;;;;;;15.77;13.33;;;23.10;1.00;;;;;;5028783;28;20485;-75
2023/07/05 09:13:29;;;;;;;15.13;13.73;;;23.30;1.00;;;;;;5028002;28;20644;-73
2023/07/05 09:16:04;;;;;;;16.63;13.80;;;23.50;1.00;;;;;;5026776;28;20485;-74
2023/07/05 09:18:41;;;;;;;14.57;13.13;;;23.70;1.00;;;;;;5028377;28;20414;-73
2023/07/05 09:21:21;;;;;;;14.13;12.77;;;24.00;1.00;;;;;;5027662;28;20438;-74
2023/07/05 09:23:52;;;;;;;12.50;11.20;;;24.00;1.00;;;;;;5026842;28;20516;-73
2023/07/05 09:26:26;;;;;;;13.77;12.00;;;24.00;1.00;;;;;;5026345;28;20467;-73
2023/07/05 09:29:05;;;;;;;12.57;11.47;;;24.10;1.00;;;;;;5026912;28;20439;-73
2023/07/05 09:31:34;;;;;;;16.53;11.97;;;24.30;1.00;;;;;;5025301;28;20965;-73
2023/07/05 09:34:16;;;;;;;11.93;10.73;;;24.40;1.00;;;;;;5024918;28;20484;-74
2023/07/05 09:36:43;;;;;;;15.50;11.20;;;24.40;1.00;;;;;;5018274;28;20446;-70
2023/07/05 09:39:23;;;;;;;12.87;11.67;;;24.40;1.00;;;;;;5015609;28;20652;-72
2023/07/05 09:41:55;;;;;;;13.00;11.80;;;24.40;1.00;;;;;;5021875;28;20981;-70
2023/07/05 09:44:22;;;;;;;12.90;11.23;;;24.40;1.00;;;;;;5023694;28;20477;-71
2023/07/05 09:46:49;;;;;;;13.20;10.63;;;24.40;1.00;;;;;;5020739;28;20562;-71
2023/07/05 09:49:18;;;;;;;10.10;9.10;;;24.20;1.00;;;;;;5020120;28;20602;-70
2023/07/05 09:51:46;;;;;;;11.57;10.37;;;24.20;1.00;;;;;;5019954;28;20868;-71
2023/07/05 09:54:19;;;;;;;10.87;9.73;;;24.20;1.00;;;;;;5013152;28;20524;-70
2023/07/05 09:57:04;;;;;;;11.97;9.50;;;24.30;1.00;;;;;;5024723;28;20500;-70
2023/07/05 09:59:34;;;;;;;13.10;10.00;;;24.50;1.00;;;;;;5022269;28;20455;-69
2023/07/05 10:02:18;;;;;;;10.57;9.57;;;24.60;1.00;;;;;;5015246;28;20484;-72
2023/07/05 10:04:47;;;;;;;10.40;9.30;;;24.50;1.00;;;;;;5011659;28;20483;-68
2023/07/05 10:07:19;;;;;;;10.83;9.83;;;24.60;1.00;;;;;;5016430;28;20513;-69
2023/07/05 10:09:59;;;;;;;11.30;9.47;;;24.70;1.00;;;;;;5021086;28;20469;-70
2023/07/05 10:12:33;;;;;;;9.90;9.00;;;24.90;1.00;;;;;;5020443;28;20490;-69
2023/07/05 10:15:01;;;;;;;9.50;8.60;;;24.90;1.00;;;;;;5020587;28;20551;-69
2023/07/05 10:17:42;;;;;;;10.00;9.07;;;24.90;1.00;;;;;;5021529;28;20539;-69
2023/07/05 10:20:21;;;;;;;11.00;9.90;;;24.70;1.00;;;;;;5025466;28;20469;-68
2023/07/05 10:22:48;;;;;;;9.53;8.63;;;24.70;1.00;;;;;;5024594;28;20558;-70
2023/07/05 10:25:18;;;;;;;11.20;8.90;;;24.90;1.00;;;;;;5018284;28;20491;-68
2023/07/05 10:27:48;;;;;;;8.97;8.10;;;25.30;1.00;;;;;;5020915;28;20459;-68
2023/07/05 10:30:19;;;;;;;10.73;7.90;;;25.30;1.00;;;;;;5021678;28;21145;-69
2023/07/05 10:32:49;;;;;;;9.40;8.40;;;25.70;1.00;;;;;;5023466;28;20512;-69
2023/07/05 10:35:23;;;;;;;8.20;7.50;;;26.00;1.00;;;;;;5023206;28;20488;-70
2023/07/05 10:37:51;;;;;;;6.27;5.70;;;26.40;1.00;;;;;;5025079;28;20470;-68
2023/07/05 10:40:19;;;;;;;10.40;6.23;;;27.30;1.00;;;;;;5010050;28;20746;-68
2023/07/05 10:42:51;;;;;;;6.40;5.67;;;27.60;1.00;;;;;;5016320;28;20571;-70
2023/07/05 10:45:21;;;;;;;6.83;6.23;;;28.10;1.00;;;;;;5020672;28;20653;-70
2023/07/05 10:47:52;;;;;;;6.43;5.87;;;28.80;1.00;;;;;;5018951;28;20488;-70
2023/07/05 10:50:27;;;;;;;6.70;5.67;;;29.40;1.00;;;;;;5019541;28;20467;-69
2023/07/05 10:53:00;;;;;;;5.53;5.03;;;29.40;1.00;;;;;;5023761;28;20561;-72
2023/07/05 10:55:38;;;;;;;7.60;6.20;;;29.30;1.00;;;;;;5019280;28;20998;-69
2023/07/05 10:58:11;;;;;;;7.40;5.07;;;29.30;1.00;;;;;;5015008;28;20490;-70
2023/07/05 11:00:44;;;;;;;5.60;5.07;;;28.80;1.00;;;;;;5018631;28;20539;-71
2023/07/05 11:03:15;;;;;;;6.60;4.93;;;27.60;1.00;;;;;;5015086;28;20480;-70
2023/07/05 11:05:49;;;;;;;5.27;4.60;;;26.90;1.00;;;;;;5016216;28;20507;-69
2023/07/05 11:08:19;;;;;;;5.50;5.00;;;26.60;1.00;;;;;;5014502;28;20482;-69
2023/07/05 11:10:47;;;;;;;4.50;4.10;;;26.60;1.00;;;;;;5022300;28;20498;-70
2023/07/05 11:13:17;;;;;;;5.67;5.03;;;26.30;1.00;;;;;;5019842;28;20465;-70
2023/07/05 11:15:46;;;;;;;4.60;4.20;;;26.10;1.00;;;;;;5023393;28;20467;-70
2023/07/05 11:18:16;;;;;;;4.90;4.50;;;25.90;1.00;;;;;;5022533;28;20473;-70
2023/07/05 11:20:51;;;;;;;5.93;5.40;;;25.90;1.00;;;;;;5012207;28;20473;-69
2023/07/05 11:23:53;;;;;;;4.70;4.30;;;25.30;1.00;;;;;;5017120;28;20963;-69
2023/07/05 11:26:39;;;;;;;5.67;4.57;;;25.10;1.00;;;;;;5023195;28;20504;-71
2023/07/05 11:29:52;;;;;;;4.23;3.50;;;25.70;1.00;;;;;;5022527;28;20502;-68
2023/07/05 11:32:22;;;;;;;4.47;3.43;;;26.80;1.00;;;;;;5015681;28;20560;-70
2023/07/05 11:34:51;;;;;;;4.10;3.60;;;28.00;1.00;;;;;;5021635;28;20562;-71
2023/07/05 11:37:43;;;;;;;5.00;3.50;;;28.70;1.00;;;;;;5021556;28;20455;-70
2023/07/05 11:40:57;;;;;;;4.53;3.70;;;29.90;1.00;;;;;;5019699;28;20542;-70
2023/07/05 11:43:25;;;;;;;3.90;3.50;;;30.90;1.00;;;;;;5021920;28;20980;-69
2023/07/05 11:45:52;;;;;;;4.63;3.73;;;31.00;1.00;;;;;;5022786;28;20568;-70
2023/07/05 11:48:43;;;;;;;4.50;4.10;;;30.50;1.00;;;;;;5024812;28;20559;-71
2023/07/05 11:51:21;;;;;;;3.70;3.20;;;29.80;1.00;;;;;;5027664;28;21104;-72
2023/07/05 11:53:48;;;;;;;3.80;3.50;;;29.40;1.00;;;;;;5026156;28;20530;-72
2023/07/05 11:56:18;;;;;;;3.80;3.50;;;29.70;1.00;;;;;;5026278;28;20593;-72
2023/07/05 11:58:47;;;;;;;3.87;3.50;;;29.80;1.00;;;;;;5030715;28;20467;-70
2023/07/05 12:01:22;;;;;;;4.33;3.60;;;29.30;1.00;;;;;;5024112;28;20909;-71
2023/07/05 12:03:58;;;;;;;3.90;3.50;;;29.10;1.00;;;;;;5022020;28;20966;-71
2023/07/05 12:06:33;;;;;;;3.67;3.37;;;29.50;1.00;;;;;;5020866;28;20485;-71
2023/07/05 12:09:03;;;;;;;4.47;3.30;;;29.30;1.00;;;;;;5029315;28;20471;-69
2023/07/05 12:11:34;;;;;;;3.70;3.10;;;28.50;1.00;;;;;;5022127;28;20476;-71
2023/07/05 12:14:03;;;;;;;3.30;2.87;;;28.00;1.00;;;;;;5024506;28;20465;-75
2023/07/05 12:16:31;;;;;;;3.27;2.97;;;27.60;1.00;;;;;;5020471;28;20481;-76
2023/07/05 12:19:00;;;;;;;4.80;3.57;;;27.20;1.00;;;;;;5020885;28;21082;-76
2023/07/05 12:21:27;;;;;;;4.23;2.80;;;27.20;1.00;;;;;;5024875;28;20480;-75
2023/07/05 12:23:54;;;;;;;3.80;3.20;;;27.40;1.00;;;;;;5024010;28;20573;-76
2023/07/05 12:26:29;;;;;;;5.23;3.10;;;27.70;1.00;;;;;;5021275;28;20504;-77
2023/07/05 12:28:59;;;;;;;3.70;2.97;;;28.10;1.00;;;;;;5020071;28;20468;-76
2023/07/05 12:31:27;;;;;;;5.80;2.77;;;28.40;1.00;;;;;;5024062;28;21448;-79
2023/07/05 12:33:56;;;;;;;3.47;2.37;;;28.40;1.00;;;;;;5024209;28;20458;-79
2023/07/05 12:36:27;;;;;;;3.53;2.80;;;28.00;1.00;;;;;;5025437;28;20502;-80
2023/07/05 12:39:09;;;;;;;5.10;2.60;;;27.60;1.00;;;;;;5022895;28;20568;-78
2023/07/05 12:41:36;;;;;;;3.60;2.47;;;27.50;1.00;;;;;;5027508;28;20498;-80
2023/07/05 12:44:09;;;;;;;2.73;2.33;;;27.60;1.00;;;;;;5024830;28;20472;-78
2023/07/05 12:46:37;;;;;;;5.40;2.50;;;27.80;1.00;;;;;;5024997;28;20517;-78
2023/07/05 12:49:11;;;;;;;3.00;2.20;;;27.80;1.00;;;;;;5037266;28;20458;-80
2023/07/05 12:51:49;;;;;;;4.00;2.33;;;27.60;1.00;;;;;;5027896;28;20468;-78
2023/07/05 12:54:17;;;;;;;2.93;2.20;;;27.50;1.00;;;;;;5027543;28;20494;-79
2023/07/05 12:56:47;;;;;;;6.33;2.43;;;27.10;1.00;;;;;;5025189;28;20621;-77
2023/07/05 12:59:31;;;;;;;4.50;2.20;;;27.80;1.00;;;;;;5025114;28;21088;-77
2023/07/05 13:01:59;;;;;;;4.00;1.67;;;28.40;1.00;;;;;;5026291;28;20908;-78
2023/07/05 13:04:26;;;;;;;6.43;2.20;;;28.00;1.00;;;;;;5023090;28;20603;-79
2023/07/05 13:06:57;;;;;;;3.30;2.63;;;27.70;1.00;;;;;;5034590;28;20471;-79
2023/07/05 13:09:28;;;;;;;1.83;1.67;;;27.40;1.00;;;;;;5026165;28;20637;-79
2023/07/05 13:11:59;;;;;;;2.00;1.80;;;27.00;1.00;;;;;;5024568;28;20456;-79
2023/07/05 13:14:28;;;;;;;4.93;1.90;;;26.90;1.00;;;;;;5027604;28;20920;-79